sensor_id;sensor_type;location;lat;lon;timestamp;P1;durP1;ratioP1;P2;durP2;ratioP2
83447;SDS011;73376;45.472;-73.568;2024-02-14T00:01:06;7.17;;;2.67;;
83447;SDS011;73376;45.472;-73.568;2024-02-14T00:03:35;12.07;;;2.53;;
83447;SDS011;73376;45.472;-73.568;2024-02-14T00:06:06;12.13;;;2.60;;
83447;SDS011;73376;45.472;-73.568;2024-02-14T00:08:37;11.33;;;2.73;;
83447;SDS011;73376;45.472;-73.568;2024-02-14T00:11:03;10.17;;;2.37;;
83447;SDS011;73376;45.472;-73.568;2024-02-14T00:13:30;12.83;;;3.33;;
83447;SDS011;73376;45.472;-73.568;2024-02-14T00:16:02;12.23;;;2.70;;
83447;SDS011;73376;45.472;-73.568;2024-02-14T00:18:29;17.60;;;2.90;;
83447;SDS011;73376;45.472;-73.568;2024-02-14T00:20:58;9.37;;;2.73;;
83447;SDS011;73376;45.472;-73.568;2024-02-14T00:23:33;11.77;;;2.45;;
83447;SDS011;73376;45.472;-73.568;2024-02-14T00:25:59;25.83;;;4.63;;
83447;SDS011;73376;45.472;-73.568;2024-02-14T00:28:33;5.73;;;2.20;;
83447;SDS011;73376;45.472;-73.568;2024-02-14T00:31:08;7.33;;;2.50;;
83447;SDS011;73376;45.472;-73.568;2024-02-14T00:33:35;14.47;;;3.10;;
83447;SDS011;73376;45.472;-73.568;2024-02-14T00:36:01;13.50;;;2.20;;
83447;SDS011;73376;45.472;-73.568;2024-02-14T00:38:33;8.03;;;1.83;;
83447;SDS011;73376;45.472;-73.568;2024-02-14T00:41:01;8.00;;;2.03;;
83447;SDS011;73376;45.472;-73.568;2024-02-14T00:43:28;5.33;;;1.80;;
83447;SDS011;73376;45.472;-73.568;2024-02-14T00:45:54;5.63;;;1.93;;
83447;SDS011;73376;45.472;-73.568;2024-02-14T00:48:23;5.10;;;1.63;;
83447;SDS011;73376;45.472;-73.568;2024-02-14T00:50:52;7.63;;;1.80;;
83447;SDS011;73376;45.472;-73.568;2024-02-14T00:53:18;8.00;;;1.80;;
83447;SDS011;73376;45.472;-73.568;2024-02-14T00:55:44;4.83;;;1.60;;
83447;SDS011;73376;45.472;-73.568;2024-02-14T00:58:10;5.60;;;2.30;;
83447;SDS011;73376;45.472;-73.568;2024-02-14T01:00:36;5.30;;;1.87;;
83447;SDS011;73376;45.472;-73.568;2024-02-14T01:03:06;8.93;;;1.80;;
83447;SDS011;73376;45.472;-73.568;2024-02-14T01:05:32;4.33;;;1.90;;
83447;SDS011;73376;45.472;-73.568;2024-02-14T01:07:58;6.23;;;2.10;;
83447;SDS011;73376;45.472;-73.568;2024-02-14T01:10:29;6.23;;;1.70;;
83447;SDS011;73376;45.472;-73.568;2024-02-14T01:15:25;6.17;;;2.27;;
83447;SDS011;73376;45.472;-73.568;2024-02-14T01:17:52;3.33;;;1.90;;
83447;SDS011;73376;45.472;-73.568;2024-02-14T01:20:28;11.23;;;1.73;;
83447;SDS011;73376;45.472;-73.568;2024-02-14T01:22:57;6.97;;;2.03;;
83447;SDS011;73376;45.472;-73.568;2024-02-14T01:25:26;4.30;;;1.70;;
83447;SDS011;73376;45.472;-73.568;2024-02-14T01:27:52;4.33;;;1.77;;
83447;SDS011;73376;45.472;-73.568;2024-02-14T01:30:23;3.63;;;1.63;;
83447;SDS011;73376;45.472;-73.568;2024-02-14T01:33:02;4.50;;;1.50;;
83447;SDS011;73376;45.472;-73.568;2024-02-14T01:35:34;6.83;;;1.90;;
83447;SDS011;73376;45.472;-73.568;2024-02-14T01:38:00;7.20;;;2.13;;
83447;SDS011;73376;45.472;-73.568;2024-02-14T01:40:30;10.03;;;2.17;;
83447;SDS011;73376;45.472;-73.568;2024-02-14T01:42:56;7.17;;;2.10;;
83447;SDS011;73376;45.472;-73.568;2024-02-14T01:45:26;6.87;;;1.50;;
83447;SDS011;73376;45.472;-73.568;2024-02-14T01:47:54;4.73;;;1.83;;
83447;SDS011;73376;45.472;-73.568;2024-02-14T01:50:21;3.90;;;1.70;;
83447;SDS011;73376;45.472;-73.568;2024-02-14T01:52:56;5.67;;;1.50;;
83447;SDS011;73376;45.472;-73.568;2024-02-14T01:55:26;6.65;;;1.92;;
83447;SDS011;73376;45.472;-73.568;2024-02-14T01:57:54;6.00;;;1.73;;
83447;SDS011;73376;45.472;-73.568;2024-02-14T02:00:25;6.85;;;1.75;;
83447;SDS011;73376;45.472;-73.568;2024-02-14T02:02:55;4.47;;;1.80;;
83447;SDS011;73376;45.472;-73.568;2024-02-14T02:05:21;2.77;;;1.43;;
83447;SDS011;73376;45.472;-73.568;2024-02-14T02:07:47;7.00;;;2.20;;
83447;SDS011;73376;45.472;-73.568;2024-02-14T02:10:14;6.00;;;1.50;;
83447;SDS011;73376;45.472;-73.568;2024-02-14T02:12:40;4.73;;;1.47;;
83447;SDS011;73376;45.472;-73.568;2024-02-14T02:15:07;5.50;;;2.37;;
83447;SDS011;73376;45.472;-73.568;2024-02-14T02:17:38;4.05;;;1.90;;
83447;SDS011;73376;45.472;-73.568;2024-02-14T02:20:05;4.40;;;1.97;;
83447;SDS011;73376;45.472;-73.568;2024-02-14T02:25:07;4.20;;;1.80;;
83447;SDS011;73376;45.472;-73.568;2024-02-14T02:27:34;5.17;;;2.00;;
83447;SDS011;73376;45.472;-73.568;2024-02-14T02:30:04;6.50;;;2.20;;
83447;SDS011;73376;45.472;-73.568;2024-02-14T02:32:31;3.80;;;1.87;;
83447;SDS011;73376;45.472;-73.568;2024-02-14T02:34:58;3.83;;;2.13;;
83447;SDS011;73376;45.472;-73.568;2024-02-14T02:37:25;6.40;;;2.83;;
83447;SDS011;73376;45.472;-73.568;2024-02-14T02:39:54;6.93;;;3.80;;
83447;SDS011;73376;45.472;-73.568;2024-02-14T02:42:23;8.70;;;4.20;;
83447;SDS011;73376;45.472;-73.568;2024-02-14T02:44:54;9.37;;;4.97;;
83447;SDS011;73376;45.472;-73.568;2024-02-14T02:47:20;12.33;;;5.47;;
83447;SDS011;73376;45.472;-73.568;2024-02-14T02:49:49;11.40;;;6.20;;
83447;SDS011;73376;45.472;-73.568;2024-02-14T02:52:25;10.57;;;4.77;;
83447;SDS011;73376;45.472;-73.568;2024-02-14T02:54:56;9.67;;;4.43;;
83447;SDS011;73376;45.472;-73.568;2024-02-14T02:58:20;3.07;;;1.73;;
83447;SDS011;73376;45.472;-73.568;2024-02-14T03:01:34;2.55;;;1.20;;
83447;SDS011;73376;45.472;-73.568;2024-02-14T03:04:09;1.50;;;0.90;;
83447;SDS011;73376;45.472;-73.568;2024-02-14T03:06:39;2.77;;;0.60;;
83447;SDS011;73376;45.472;-73.568;2024-02-14T03:09:05;1.10;;;0.60;;
83447;SDS011;73376;45.472;-73.568;2024-02-14T03:11:32;1.20;;;0.70;;
83447;SDS011;73376;45.472;-73.568;2024-02-14T03:14:02;1.63;;;0.70;;
83447;SDS011;73376;45.472;-73.568;2024-02-14T03:16:34;1.57;;;0.70;;
83447;SDS011;73376;45.472;-73.568;2024-02-14T03:19:04;0.90;;;0.60;;
83447;SDS011;73376;45.472;-73.568;2024-02-14T03:21:33;3.23;;;0.70;;
83447;SDS011;73376;45.472;-73.568;2024-02-14T03:24:01;1.27;;;0.60;;
83447;SDS011;73376;45.472;-73.568;2024-02-14T03:26:32;1.13;;;0.50;;
83447;SDS011;73376;45.472;-73.568;2024-02-14T03:29:04;0.90;;;0.60;;
83447;SDS011;73376;45.472;-73.568;2024-02-14T03:31:31;2.80;;;0.70;;
83447;SDS011;73376;45.472;-73.568;2024-02-14T03:34:07;3.53;;;0.50;;
83447;SDS011;73376;45.472;-73.568;2024-02-14T03:36:37;1.00;;;0.30;;
83447;SDS011;73376;45.472;-73.568;2024-02-14T03:39:03;2.00;;;0.60;;
83447;SDS011;73376;45.472;-73.568;2024-02-14T03:41:33;3.80;;;0.50;;
83447;SDS011;73376;45.472;-73.568;2024-02-14T03:46:29;1.33;;;0.70;;
83447;SDS011;73376;45.472;-73.568;2024-02-14T03:49:01;0.95;;;0.47;;
83447;SDS011;73376;45.472;-73.568;2024-02-14T03:51:29;0.70;;;0.50;;
83447;SDS011;73376;45.472;-73.568;2024-02-14T03:53:56;1.50;;;0.50;;
83447;SDS011;73376;45.472;-73.568;2024-02-14T03:56:24;2.33;;;0.70;;
83447;SDS011;73376;45.472;-73.568;2024-02-14T03:58:51;1.63;;;0.50;;
83447;SDS011;73376;45.472;-73.568;2024-02-14T04:01:17;1.00;;;0.50;;
83447;SDS011;73376;45.472;-73.568;2024-02-14T04:03:45;1.07;;;0.53;;
83447;SDS011;73376;45.472;-73.568;2024-02-14T04:06:13;1.73;;;0.60;;
83447;SDS011;73376;45.472;-73.568;2024-02-14T04:08:40;1.40;;;0.60;;
83447;SDS011;73376;45.472;-73.568;2024-02-14T04:11:05;1.53;;;0.60;;
83447;SDS011;73376;45.472;-73.568;2024-02-14T04:13:32;1.77;;;0.60;;
83447;SDS011;73376;45.472;-73.568;2024-02-14T04:16:00;1.03;;;0.60;;
83447;SDS011;73376;45.472;-73.568;2024-02-14T04:18:28;2.60;;;0.63;;
83447;SDS011;73376;45.472;-73.568;2024-02-14T04:20:54;1.13;;;0.60;;
83447;SDS011;73376;45.472;-73.568;2024-02-14T04:23:20;1.77;;;0.70;;
83447;SDS011;73376;45.472;-73.568;2024-02-14T04:25:50;1.83;;;0.60;;
83447;SDS011;73376;45.472;-73.568;2024-02-14T04:28:21;1.43;;;0.70;;
83447;SDS011;73376;45.472;-73.568;2024-02-14T04:30:47;4.90;;;1.20;;
83447;SDS011;73376;45.472;-73.568;2024-02-14T04:33:14;2.57;;;0.90;;
83447;SDS011;73376;45.472;-73.568;2024-02-14T04:35:40;5.97;;;1.00;;
83447;SDS011;73376;45.472;-73.568;2024-02-14T04:38:08;2.50;;;0.60;;
83447;SDS011;73376;45.472;-73.568;2024-02-14T04:40:34;0.70;;;0.60;;
83447;SDS011;73376;45.472;-73.568;2024-02-14T04:43:00;1.20;;;0.80;;
83447;SDS011;73376;45.472;-73.568;2024-02-14T04:45:26;1.30;;;0.70;;
83447;SDS011;73376;45.472;-73.568;2024-02-14T04:47:52;3.13;;;0.90;;
83447;SDS011;73376;45.472;-73.568;2024-02-14T04:50:21;2.10;;;0.83;;
83447;SDS011;73376;45.472;-73.568;2024-02-14T04:52:47;1.53;;;0.70;;
83447;SDS011;73376;45.472;-73.568;2024-02-14T04:55:13;1.23;;;0.60;;
83447;SDS011;73376;45.472;-73.568;2024-02-14T04:57:39;0.63;;;0.57;;
83447;SDS011;73376;45.472;-73.568;2024-02-14T05:00:05;1.50;;;0.70;;
83447;SDS011;73376;45.472;-73.568;2024-02-14T05:02:34;6.03;;;0.70;;
83447;SDS011;73376;45.472;-73.568;2024-02-14T05:05:01;1.40;;;0.70;;
83447;SDS011;73376;45.472;-73.568;2024-02-14T05:07:30;1.23;;;0.63;;
83447;SDS011;73376;45.472;-73.568;2024-02-14T05:09:57;1.33;;;0.60;;
83447;SDS011;73376;45.472;-73.568;2024-02-14T05:12:23;0.87;;;0.50;;
83447;SDS011;73376;45.472;-73.568;2024-02-14T05:14:49;0.87;;;0.57;;
83447;SDS011;73376;45.472;-73.568;2024-02-14T05:17:15;4.73;;;0.53;;
83447;SDS011;73376;45.472;-73.568;2024-02-14T05:19:44;2.00;;;0.40;;
83447;SDS011;73376;45.472;-73.568;2024-02-14T05:22:09;2.63;;;0.53;;
83447;SDS011;73376;45.472;-73.568;2024-02-14T05:24:35;1.30;;;0.43;;
83447;SDS011;73376;45.472;-73.568;2024-02-14T05:27:05;0.80;;;0.40;;
83447;SDS011;73376;45.472;-73.568;2024-02-14T05:29:33;0.77;;;0.40;;
83447;SDS011;73376;45.472;-73.568;2024-02-14T05:31:59;1.23;;;0.50;;
83447;SDS011;73376;45.472;-73.568;2024-02-14T05:34:25;0.97;;;0.43;;
83447;SDS011;73376;45.472;-73.568;2024-02-14T05:36:54;0.43;;;0.30;;
83447;SDS011;73376;45.472;-73.568;2024-02-14T05:39:20;0.63;;;0.30;;
83447;SDS011;73376;45.472;-73.568;2024-02-14T05:41:48;0.77;;;0.30;;
83447;SDS011;73376;45.472;-73.568;2024-02-14T05:44:19;1.55;;;0.40;;
83447;SDS011;73376;45.472;-73.568;2024-02-14T05:46:46;0.33;;;0.30;;
83447;SDS011;73376;45.472;-73.568;2024-02-14T05:49:13;0.33;;;0.30;;
83447;SDS011;73376;45.472;-73.568;2024-02-14T05:51:41;0.60;;;0.40;;
83447;SDS011;73376;45.472;-73.568;2024-02-14T05:54:07;1.67;;;0.40;;
83447;SDS011;73376;45.472;-73.568;2024-02-14T05:56:34;0.50;;;0.40;;
83447;SDS011;73376;45.472;-73.568;2024-02-14T05:59:00;0.47;;;0.40;;
83447;SDS011;73376;45.472;-73.568;2024-02-14T06:01:26;1.33;;;0.50;;
83447;SDS011;73376;45.472;-73.568;2024-02-14T06:03:54;2.80;;;0.40;;
83447;SDS011;73376;45.472;-73.568;2024-02-14T06:06:22;0.53;;;0.23;;
83447;SDS011;73376;45.472;-73.568;2024-02-14T06:08:48;0.77;;;0.40;;
83447;SDS011;73376;45.472;-73.568;2024-02-14T06:11:17;1.63;;;0.47;;
83447;SDS011;73376;45.472;-73.568;2024-02-14T06:13:47;0.40;;;0.33;;
83447;SDS011;73376;45.472;-73.568;2024-02-14T06:16:13;0.40;;;0.40;;
83447;SDS011;73376;45.472;-73.568;2024-02-14T06:18:39;0.30;;;0.30;;
83447;SDS011;73376;45.472;-73.568;2024-02-14T06:21:06;0.53;;;0.33;;
83447;SDS011;73376;45.472;-73.568;2024-02-14T06:23:32;0.87;;;0.40;;
83447;SDS011;73376;45.472;-73.568;2024-02-14T06:25:58;0.50;;;0.30;;
83447;SDS011;73376;45.472;-73.568;2024-02-14T06:28:27;0.30;;;0.30;;
83447;SDS011;73376;45.472;-73.568;2024-02-14T06:30:53;0.37;;;0.30;;
83447;SDS011;73376;45.472;-73.568;2024-02-14T06:33:19;0.33;;;0.23;;
83447;SDS011;73376;45.472;-73.568;2024-02-14T06:35:46;0.60;;;0.43;;
83447;SDS011;73376;45.472;-73.568;2024-02-14T06:38:12;0.70;;;0.30;;
83447;SDS011;73376;45.472;-73.568;2024-02-14T06:40:38;0.60;;;0.30;;
83447;SDS011;73376;45.472;-73.568;2024-02-14T06:43:04;0.90;;;0.20;;
83447;SDS011;73376;45.472;-73.568;2024-02-14T06:45:32;0.20;;;0.20;;
83447;SDS011;73376;45.472;-73.568;2024-02-14T06:47:58;0.17;;;0.17;;
83447;SDS011;73376;45.472;-73.568;2024-02-14T06:50:27;1.60;;;0.20;;
83447;SDS011;73376;45.472;-73.568;2024-02-14T06:52:54;0.50;;;0.40;;
83447;SDS011;73376;45.472;-73.568;2024-02-14T06:55:25;0.20;;;0.10;;
83447;SDS011;73376;45.472;-73.568;2024-02-14T06:57:51;0.80;;;0.20;;
83447;SDS011;73376;45.472;-73.568;2024-02-14T07:00:17;0.32;;;0.20;;
83447;SDS011;73376;45.472;-73.568;2024-02-14T07:02:44;0.40;;;0.20;;
83447;SDS011;73376;45.472;-73.568;2024-02-14T07:05:12;0.35;;;0.22;;
83447;SDS011;73376;45.472;-73.568;2024-02-14T07:07:40;0.25;;;0.20;;
83447;SDS011;73376;45.472;-73.568;2024-02-14T07:10:06;0.80;;;0.20;;
83447;SDS011;73376;45.472;-73.568;2024-02-14T07:12:33;0.20;;;0.20;;
83447;SDS011;73376;45.472;-73.568;2024-02-14T07:15:01;0.20;;;0.20;;
83447;SDS011;73376;45.472;-73.568;2024-02-14T07:17:29;0.30;;;0.20;;
83447;SDS011;73376;45.472;-73.568;2024-02-14T07:19:56;0.43;;;0.20;;
83447;SDS011;73376;45.472;-73.568;2024-02-14T07:22:22;0.38;;;0.20;;
83447;SDS011;73376;45.472;-73.568;2024-02-14T07:24:48;0.13;;;0.13;;
83447;SDS011;73376;45.472;-73.568;2024-02-14T07:27:14;3.58;;;0.20;;
83447;SDS011;73376;45.472;-73.568;2024-02-14T07:29:41;0.10;;;0.10;;
83447;SDS011;73376;45.472;-73.568;2024-02-14T07:32:08;0.50;;;0.20;;
83447;SDS011;73376;45.472;-73.568;2024-02-14T07:34:34;0.70;;;0.20;;
83447;SDS011;73376;45.472;-73.568;2024-02-14T07:37:03;0.10;;;0.10;;
83447;SDS011;73376;45.472;-73.568;2024-02-14T07:39:29;0.10;;;0.10;;
83447;SDS011;73376;45.472;-73.568;2024-02-14T07:41:55;0.83;;;0.20;;
83447;SDS011;73376;45.472;-73.568;2024-02-14T07:44:22;0.40;;;0.20;;
83447;SDS011;73376;45.472;-73.568;2024-02-14T07:46:51;0.10;;;0.10;;
83447;SDS011;73376;45.472;-73.568;2024-02-14T07:49:18;0.57;;;0.20;;
83447;SDS011;73376;45.472;-73.568;2024-02-14T07:51:47;0.60;;;0.40;;
83447;SDS011;73376;45.472;-73.568;2024-02-14T07:54:13;0.10;;;0.10;;
83447;SDS011;73376;45.472;-73.568;2024-02-14T07:56:42;0.32;;;0.30;;
83447;SDS011;73376;45.472;-73.568;2024-02-14T07:59:08;1.90;;;0.20;;
83447;SDS011;73376;45.472;-73.568;2024-02-14T08:01:34;1.10;;;0.20;;
83447;SDS011;73376;45.472;-73.568;2024-02-14T08:04:00;0.60;;;0.20;;
83447;SDS011;73376;45.472;-73.568;2024-02-14T08:06:28;0.10;;;0.10;;
83447;SDS011;73376;45.472;-73.568;2024-02-14T08:08:54;1.08;;;0.22;;
83447;SDS011;73376;45.472;-73.568;2024-02-14T08:11:26;0.60;;;0.40;;
83447;SDS011;73376;45.472;-73.568;2024-02-14T08:13:52;0.68;;;0.63;;
83447;SDS011;73376;45.472;-73.568;2024-02-14T08:16:18;2.60;;;0.40;;
83447;SDS011;73376;45.472;-73.568;2024-02-14T08:18:44;0.30;;;0.20;;
83447;SDS011;73376;45.472;-73.568;2024-02-14T08:21:11;1.58;;;0.30;;
83447;SDS011;73376;45.472;-73.568;2024-02-14T08:23:37;1.50;;;0.28;;
83447;SDS011;73376;45.472;-73.568;2024-02-14T08:26:07;0.70;;;0.50;;
83447;SDS011;73376;45.472;-73.568;2024-02-14T08:28:36;1.20;;;0.30;;
83447;SDS011;73376;45.472;-73.568;2024-02-14T08:31:05;2.15;;;0.40;;
83447;SDS011;73376;45.472;-73.568;2024-02-14T08:33:36;3.30;;;0.30;;
83447;SDS011;73376;45.472;-73.568;2024-02-14T08:36:03;0.55;;;0.30;;
83447;SDS011;73376;45.472;-73.568;2024-02-14T08:38:37;0.45;;;0.40;;
83447;SDS011;73376;45.472;-73.568;2024-02-14T08:41:06;0.40;;;0.20;;
83447;SDS011;73376;45.472;-73.568;2024-02-14T08:43:33;0.40;;;0.40;;
83447;SDS011;73376;45.472;-73.568;2024-02-14T08:45:59;0.33;;;0.30;;
83447;SDS011;73376;45.472;-73.568;2024-02-14T08:48:25;0.40;;;0.20;;
83447;SDS011;73376;45.472;-73.568;2024-02-14T08:50:55;2.75;;;0.30;;
83447;SDS011;73376;45.472;-73.568;2024-02-14T08:53:21;0.70;;;0.30;;
83447;SDS011;73376;45.472;-73.568;2024-02-14T08:55:47;0.50;;;0.30;;
83447;SDS011;73376;45.472;-73.568;2024-02-14T08:58:13;0.28;;;0.20;;
83447;SDS011;73376;45.472;-73.568;2024-02-14T09:00:42;0.95;;;0.30;;
83447;SDS011;73376;45.472;-73.568;2024-02-14T09:03:08;0.40;;;0.20;;
83447;SDS011;73376;45.472;-73.568;2024-02-14T09:05:38;0.80;;;0.30;;
83447;SDS011;73376;45.472;-73.568;2024-02-14T09:08:04;1.45;;;0.30;;
83447;SDS011;73376;45.472;-73.568;2024-02-14T09:10:30;2.20;;;0.40;;
83447;SDS011;73376;45.472;-73.568;2024-02-14T09:12:56;0.30;;;0.20;;
83447;SDS011;73376;45.472;-73.568;2024-02-14T09:15:22;1.17;;;0.30;;
83447;SDS011;73376;45.472;-73.568;2024-02-14T09:17:49;1.10;;;0.20;;
83447;SDS011;73376;45.472;-73.568;2024-02-14T09:20:17;2.00;;;0.32;;
83447;SDS011;73376;45.472;-73.568;2024-02-14T09:22:44;0.88;;;0.20;;
83447;SDS011;73376;45.472;-73.568;2024-02-14T09:25:10;0.87;;;0.30;;
83447;SDS011;73376;45.472;-73.568;2024-02-14T09:27:36;1.45;;;0.47;;
83447;SDS011;73376;45.472;-73.568;2024-02-14T09:30:02;1.03;;;0.40;;
83447;SDS011;73376;45.472;-73.568;2024-02-14T09:32:32;1.88;;;0.30;;
83447;SDS011;73376;45.472;-73.568;2024-02-14T09:34:59;0.65;;;0.38;;
83447;SDS011;73376;45.472;-73.568;2024-02-14T09:37:26;0.75;;;0.30;;
83447;SDS011;73376;45.472;-73.568;2024-02-14T09:39:53;0.43;;;0.30;;
83447;SDS011;73376;45.472;-73.568;2024-02-14T09:42:25;0.30;;;0.20;;
83447;SDS011;73376;45.472;-73.568;2024-02-14T09:45:14;0.70;;;0.30;;
83447;SDS011;73376;45.472;-73.568;2024-02-14T09:47:42;0.43;;;0.40;;
83447;SDS011;73376;45.472;-73.568;2024-02-14T09:50:14;0.90;;;0.30;;
83447;SDS011;73376;45.472;-73.568;2024-02-14T09:52:41;2.50;;;0.20;;
83447;SDS011;73376;45.472;-73.568;2024-02-14T09:55:08;0.50;;;0.22;;
83447;SDS011;73376;45.472;-73.568;2024-02-14T09:57:37;1.65;;;0.32;;
83447;SDS011;73376;45.472;-73.568;2024-02-14T10:00:09;4.18;;;0.30;;
83447;SDS011;73376;45.472;-73.568;2024-02-14T10:02:40;0.53;;;0.40;;
83447;SDS011;73376;45.472;-73.568;2024-02-14T10:05:07;0.65;;;0.30;;
83447;SDS011;73376;45.472;-73.568;2024-02-14T10:07:43;1.42;;;0.40;;
83447;SDS011;73376;45.472;-73.568;2024-02-14T10:10:10;0.70;;;0.40;;
83447;SDS011;73376;45.472;-73.568;2024-02-14T10:12:39;0.35;;;0.30;;
83447;SDS011;73376;45.472;-73.568;2024-02-14T10:15:06;0.30;;;0.30;;
83447;SDS011;73376;45.472;-73.568;2024-02-14T10:17:36;0.30;;;0.22;;
83447;SDS011;73376;45.472;-73.568;2024-02-14T10:20:07;0.80;;;0.30;;
83447;SDS011;73376;45.472;-73.568;2024-02-14T10:22:36;0.63;;;0.28;;
83447;SDS011;73376;45.472;-73.568;2024-02-14T10:25:03;1.02;;;0.40;;
83447;SDS011;73376;45.472;-73.568;2024-02-14T10:27:37;1.75;;;0.73;;
83447;SDS011;73376;45.472;-73.568;2024-02-14T10:30:07;0.52;;;0.32;;
83447;SDS011;73376;45.472;-73.568;2024-02-14T10:32:40;0.22;;;0.22;;
83447;SDS011;73376;45.472;-73.568;2024-02-14T10:35:15;1.25;;;0.30;;
83447;SDS011;73376;45.472;-73.568;2024-02-14T10:37:42;1.30;;;0.30;;
83447;SDS011;73376;45.472;-73.568;2024-02-14T10:40:09;1.00;;;0.30;;
83447;SDS011;73376;45.472;-73.568;2024-02-14T10:42:36;0.47;;;0.25;;
83447;SDS011;73376;45.472;-73.568;2024-02-14T10:45:07;0.45;;;0.20;;
83447;SDS011;73376;45.472;-73.568;2024-02-14T10:47:38;1.95;;;0.30;;
83447;SDS011;73376;45.472;-73.568;2024-02-14T10:50:08;2.83;;;0.40;;
83447;SDS011;73376;45.472;-73.568;2024-02-14T10:52:36;0.75;;;0.25;;
83447;SDS011;73376;45.472;-73.568;2024-02-14T10:55:06;0.93;;;0.30;;
83447;SDS011;73376;45.472;-73.568;2024-02-14T10:57:35;0.88;;;0.20;;
83447;SDS011;73376;45.472;-73.568;2024-02-14T11:00:08;0.20;;;0.20;;
83447;SDS011;73376;45.472;-73.568;2024-02-14T11:02:38;1.40;;;0.55;;
83447;SDS011;73376;45.472;-73.568;2024-02-14T11:05:05;0.68;;;0.20;;
83447;SDS011;73376;45.472;-73.568;2024-02-14T11:07:32;1.60;;;0.40;;
83447;SDS011;73376;45.472;-73.568;2024-02-14T11:10:04;1.23;;;0.30;;
83447;SDS011;73376;45.472;-73.568;2024-02-14T11:12:33;2.40;;;0.38;;
83447;SDS011;73376;45.472;-73.568;2024-02-14T11:15:08;1.90;;;0.30;;
83447;SDS011;73376;45.472;-73.568;2024-02-14T11:17:41;3.20;;;0.40;;
83447;SDS011;73376;45.472;-73.568;2024-02-14T11:20:14;0.88;;;0.30;;
83447;SDS011;73376;45.472;-73.568;2024-02-14T11:22:49;1.52;;;0.35;;
83447;SDS011;73376;45.472;-73.568;2024-02-14T11:25:20;1.35;;;0.25;;
83447;SDS011;73376;45.472;-73.568;2024-02-14T11:27:48;1.00;;;0.40;;
83447;SDS011;73376;45.472;-73.568;2024-02-14T11:30:26;0.98;;;0.50;;
83447;SDS011;73376;45.472;-73.568;2024-02-14T11:32:54;0.82;;;0.38;;
83447;SDS011;73376;45.472;-73.568;2024-02-14T11:35:32;2.63;;;0.43;;
83447;SDS011;73376;45.472;-73.568;2024-02-14T11:38:00;0.60;;;0.22;;
83447;SDS011;73376;45.472;-73.568;2024-02-14T11:40:26;1.27;;;0.35;;
83447;SDS011;73376;45.472;-73.568;2024-02-14T11:42:52;0.90;;;0.30;;
83447;SDS011;73376;45.472;-73.568;2024-02-14T11:45:19;1.85;;;0.50;;
83447;SDS011;73376;45.472;-73.568;2024-02-14T11:47:54;0.25;;;0.25;;
83447;SDS011;73376;45.472;-73.568;2024-02-14T11:50:20;1.17;;;0.52;;
83447;SDS011;73376;45.472;-73.568;2024-02-14T11:52:46;1.35;;;0.40;;
83447;SDS011;73376;45.472;-73.568;2024-02-14T11:55:13;1.52;;;0.40;;
83447;SDS011;73376;45.472;-73.568;2024-02-14T11:57:43;0.93;;;0.28;;
83447;SDS011;73376;45.472;-73.568;2024-02-14T12:00:09;0.45;;;0.20;;
83447;SDS011;73376;45.472;-73.568;2024-02-14T12:02:37;5.88;;;1.05;;
83447;SDS011;73376;45.472;-73.568;2024-02-14T12:05:04;1.30;;;0.40;;
83447;SDS011;73376;45.472;-73.568;2024-02-14T12:07:30;2.85;;;0.60;;
83447;SDS011;73376;45.472;-73.568;2024-02-14T12:09:56;3.33;;;0.63;;
83447;SDS011;73376;45.472;-73.568;2024-02-14T12:12:22;5.50;;;0.52;;
83447;SDS011;73376;45.472;-73.568;2024-02-14T12:14:58;0.73;;;0.25;;
83447;SDS011;73376;45.472;-73.568;2024-02-14T12:17:26;0.73;;;0.30;;
83447;SDS011;73376;45.472;-73.568;2024-02-14T12:19:53;1.02;;;0.30;;
83447;SDS011;73376;45.472;-73.568;2024-02-14T12:22:19;0.70;;;0.40;;
83447;SDS011;73376;45.472;-73.568;2024-02-14T12:24:45;2.65;;;0.50;;
83447;SDS011;73376;45.472;-73.568;2024-02-14T12:27:20;3.42;;;0.38;;
83447;SDS011;73376;45.472;-73.568;2024-02-14T12:29:46;0.85;;;0.40;;
83447;SDS011;73376;45.472;-73.568;2024-02-14T12:32:15;1.05;;;0.40;;
83447;SDS011;73376;45.472;-73.568;2024-02-14T12:34:43;2.67;;;0.30;;
83447;SDS011;73376;45.472;-73.568;2024-02-14T12:37:10;4.15;;;0.50;;
83447;SDS011;73376;45.472;-73.568;2024-02-14T12:39:36;1.33;;;0.38;;
83447;SDS011;73376;45.472;-73.568;2024-02-14T12:42:03;1.45;;;0.40;;
83447;SDS011;73376;45.472;-73.568;2024-02-14T12:44:30;0.85;;;0.32;;
83447;SDS011;73376;45.472;-73.568;2024-02-14T12:47:03;1.30;;;0.30;;
83447;SDS011;73376;45.472;-73.568;2024-02-14T12:49:33;0.90;;;0.35;;
83447;SDS011;73376;45.472;-73.568;2024-02-14T12:52:02;0.82;;;0.30;;
83447;SDS011;73376;45.472;-73.568;2024-02-14T12:54:29;0.80;;;0.40;;
83447;SDS011;73376;45.472;-73.568;2024-02-14T12:56:56;3.40;;;0.45;;
83447;SDS011;73376;45.472;-73.568;2024-02-14T12:59:25;4.18;;;0.43;;
83447;SDS011;73376;45.472;-73.568;2024-02-14T13:01:51;3.17;;;0.30;;
83447;SDS011;73376;45.472;-73.568;2024-02-14T13:04:17;4.47;;;0.50;;
83447;SDS011;73376;45.472;-73.568;2024-02-14T13:06:43;0.65;;;0.30;;
83447;SDS011;73376;45.472;-73.568;2024-02-14T13:09:12;1.30;;;0.35;;
83447;SDS011;73376;45.472;-73.568;2024-02-14T13:11:39;1.13;;;0.55;;
83447;SDS011;73376;45.472;-73.568;2024-02-14T13:14:09;2.30;;;0.68;;
83447;SDS011;73376;45.472;-73.568;2024-02-14T13:16:36;2.15;;;0.30;;
83447;SDS011;73376;45.472;-73.568;2024-02-14T13:19:02;1.38;;;0.40;;
83447;SDS011;73376;45.472;-73.568;2024-02-14T13:21:30;1.63;;;0.50;;
83447;SDS011;73376;45.472;-73.568;2024-02-14T13:23:59;4.95;;;0.40;;
83447;SDS011;73376;45.472;-73.568;2024-02-14T13:26:25;1.88;;;0.40;;
83447;SDS011;73376;45.472;-73.568;2024-02-14T13:28:53;0.77;;;0.43;;
83447;SDS011;73376;45.472;-73.568;2024-02-14T13:31:23;1.58;;;0.57;;
83447;SDS011;73376;45.472;-73.568;2024-02-14T13:36:21;1.10;;;0.52;;
83447;SDS011;73376;45.472;-73.568;2024-02-14T13:38:51;8.52;;;0.47;;
83447;SDS011;73376;45.472;-73.568;2024-02-14T13:41:33;2.47;;;0.55;;
83447;SDS011;73376;45.472;-73.568;2024-02-14T13:44:03;1.00;;;0.50;;
83447;SDS011;73376;45.472;-73.568;2024-02-14T13:46:30;1.15;;;0.52;;
83447;SDS011;73376;45.472;-73.568;2024-02-14T13:49:00;1.05;;;0.52;;
83447;SDS011;73376;45.472;-73.568;2024-02-14T13:51:37;5.18;;;0.55;;
83447;SDS011;73376;45.472;-73.568;2024-02-14T13:54:04;0.82;;;0.40;;
83447;SDS011;73376;45.472;-73.568;2024-02-14T13:56:34;2.40;;;0.40;;
83447;SDS011;73376;45.472;-73.568;2024-02-14T13:59:01;3.03;;;0.80;;
83447;SDS011;73376;45.472;-73.568;2024-02-14T14:01:30;2.30;;;0.57;;
83447;SDS011;73376;45.472;-73.568;2024-02-14T14:07:04;2.47;;;0.50;;
83447;SDS011;73376;45.472;-73.568;2024-02-14T14:09:35;2.97;;;0.60;;
83447;SDS011;73376;45.472;-73.568;2024-02-14T14:12:04;0.67;;;0.40;;
83447;SDS011;73376;45.472;-73.568;2024-02-14T14:14:34;0.80;;;0.60;;
83447;SDS011;73376;45.472;-73.568;2024-02-14T14:17:00;3.70;;;0.53;;
83447;SDS011;73376;45.472;-73.568;2024-02-14T14:19:29;0.30;;;0.30;;
83447;SDS011;73376;45.472;-73.568;2024-02-14T14:21:57;5.17;;;0.60;;
83447;SDS011;73376;45.472;-73.568;2024-02-14T14:24:24;4.70;;;0.80;;
83447;SDS011;73376;45.472;-73.568;2024-02-14T14:26:56;3.40;;;0.50;;
83447;SDS011;73376;45.472;-73.568;2024-02-14T14:29:22;3.03;;;0.80;;
83447;SDS011;73376;45.472;-73.568;2024-02-14T14:31:50;1.10;;;0.70;;
83447;SDS011;73376;45.472;-73.568;2024-02-14T14:34:17;3.13;;;0.80;;
83447;SDS011;73376;45.472;-73.568;2024-02-14T14:36:44;1.97;;;0.70;;
83447;SDS011;73376;45.472;-73.568;2024-02-14T14:39:13;1.17;;;0.70;;
83447;SDS011;73376;45.472;-73.568;2024-02-14T14:41:45;2.53;;;0.60;;